createdAt,value
2018-02-22T00:00:40.038Z,18.25
2018-02-22T00:03:06.325Z,18.27
2018-02-22T00:05:32.560Z,18.30
2018-02-22T00:07:58.731Z,18.30
2018-02-22T00:10:24.907Z,18.28
2018-02-22T00:12:51.255Z,18.29
2018-02-22T00:15:17.442Z,18.29
2018-02-22T00:17:43.669Z,18.28
2018-02-22T00:20:10.181Z,18.30
2018-02-22T00:22:36.369Z,18.27
2018-02-22T00:25:02.580Z,18.28
2018-02-22T00:27:28.744Z,18.24
2018-02-22T00:29:54.978Z,18.25
2018-02-22T00:32:21.426Z,18.23
2018-02-22T00:34:47.599Z,18.25
2018-02-22T00:37:13.872Z,18.22
2018-02-22T00:39:40.055Z,18.20
2018-02-22T00:42:06.254Z,18.20
2018-02-22T00:44:32.498Z,18.23
2018-02-22T00:46:58.658Z,18.24
2018-02-22T00:49:24.847Z,18.24
2018-02-22T00:51:51.102Z,18.24
2018-02-22T00:54:17.276Z,18.26
2018-02-22T00:56:43.516Z,18.33
2018-02-22T00:59:09.693Z,18.35
2018-02-22T01:01:35.947Z,18.34
2018-02-22T01:04:02.112Z,18.37
2018-02-22T01:06:28.322Z,18.37
2018-02-22T01:08:54.757Z,18.36
2018-02-22T01:11:20.929Z,18.37
2018-02-22T01:13:47.090Z,18.34
2018-02-22T01:16:13.362Z,18.33
2018-02-22T01:18:39.526Z,18.29
2018-02-22T01:21:05.821Z,18.25
2018-02-22T01:23:32.031Z,18.24
2018-02-22T01:25:58.228Z,18.22
2018-02-22T01:28:24.494Z,18.22
2018-02-22T01:30:50.677Z,18.23
2018-02-22T01:33:16.853Z,18.24
2018-02-22T01:35:43.075Z,18.19
2018-02-22T01:38:09.253Z,18.19
2018-02-22T01:40:35.437Z,18.17
2018-02-22T01:43:01.639Z,18.17
2018-02-22T01:45:27.879Z,18.15
2018-02-22T01:47:54.094Z,18.15
2018-02-22T01:50:20.294Z,18.14
2018-02-22T01:52:46.468Z,18.15
2018-02-22T01:55:12.688Z,18.15
2018-02-22T01:57:38.849Z,18.17
2018-02-22T02:00:05.058Z,18.22
2018-02-22T02:02:31.352Z,18.19
2018-02-22T02:04:57.550Z,18.19
2018-02-22T02:07:23.718Z,18.15
2018-02-22T02:09:49.942Z,18.14
2018-02-22T02:12:16.114Z,18.16
2018-02-22T02:14:42.281Z,18.15
2018-02-22T02:17:08.511Z,18.19
2018-02-22T02:19:34.690Z,18.17
2018-02-22T02:22:00.900Z,18.15
2018-02-22T02:24:27.121Z,18.18
2018-02-22T02:26:53.347Z,18.16
2018-02-22T02:29:20.362Z,18.15
2018-02-22T02:31:46.525Z,18.17
2018-02-22T02:34:12.933Z,18.18
2018-02-22T02:36:39.115Z,18.16
2018-02-22T02:39:05.362Z,18.14
2018-02-22T02:41:31.578Z,18.18
2018-02-22T02:43:57.739Z,18.15
2018-02-22T02:46:23.920Z,18.15
2018-02-22T02:48:50.126Z,18.14
2018-02-22T02:51:16.634Z,18.11
2018-02-22T02:53:43.038Z,18.11
2018-02-22T02:56:09.215Z,18.17
2018-02-22T02:58:35.374Z,18.24
2018-02-22T03:01:01.852Z,18.29
2018-02-22T03:03:28.016Z,18.27
2018-02-22T03:05:54.289Z,18.25
2018-02-22T03:08:20.486Z,18.23
2018-02-22T03:10:46.967Z,18.25
2018-02-22T03:13:13.194Z,18.23
2018-02-22T03:15:39.361Z,18.24
2018-02-22T03:18:05.529Z,18.23
2018-02-22T03:20:32.090Z,18.21
2018-02-22T03:22:58.496Z,18.20
2018-02-22T03:25:24.769Z,18.23
2018-02-22T03:27:50.925Z,18.27
2018-02-22T03:30:17.075Z,18.29
2018-02-22T03:32:50.127Z,18.28
2018-02-22T03:35:16.284Z,18.33
2018-02-22T03:37:42.498Z,18.32
2018-02-22T03:40:08.674Z,18.32
2018-02-22T03:42:35.104Z,18.30
2018-02-22T03:45:01.321Z,18.31
2018-02-22T03:47:27.473Z,18.31
2018-02-22T03:49:53.892Z,18.31
2018-02-22T03:52:20.080Z,18.28
2018-02-22T03:54:46.239Z,18.29
2018-02-22T03:57:12.421Z,18.28
2018-02-22T03:59:38.834Z,18.26
2018-02-22T04:02:05.035Z,18.32
2018-02-22T04:04:31.203Z,18.30
2018-02-22T04:06:57.410Z,18.29
2018-02-22T04:09:23.570Z,18.27
2018-02-22T04:11:49.734Z,18.26
2018-02-22T04:14:15.957Z,18.25
2018-02-22T04:16:42.102Z,18.24
2018-02-22T04:19:08.314Z,18.27
2018-02-22T04:21:34.564Z,18.25
2018-02-22T04:24:00.728Z,18.24
2018-02-22T04:26:26.924Z,18.24
2018-02-22T04:28:53.108Z,18.25
2018-02-22T04:31:19.311Z,18.21
2018-02-22T04:33:45.473Z,18.22
2018-02-22T04:36:11.700Z,18.25
2018-02-22T04:38:37.850Z,18.27
2018-02-22T04:41:04.014Z,18.27
2018-02-22T04:43:30.209Z,18.25
2018-02-22T04:45:56.397Z,18.21
2018-02-22T04:48:22.599Z,18.23
2018-02-22T04:50:48.814Z,18.27
2018-02-22T04:53:14.989Z,18.30
2018-02-22T04:55:41.153Z,18.33
2018-02-22T04:58:07.353Z,18.35
2018-02-22T05:00:33.537Z,18.37
2018-02-22T05:02:59.746Z,18.36
2018-02-22T05:05:26.167Z,18.36
2018-02-22T05:07:52.342Z,18.33
2018-02-22T05:10:18.621Z,18.33
2018-02-22T05:12:44.802Z,18.31
2018-02-22T05:15:10.961Z,18.33
2018-02-22T05:17:37.310Z,18.32
2018-02-22T05:20:03.478Z,18.33
2018-02-22T05:22:29.642Z,18.33
2018-02-22T05:24:55.903Z,18.28
2018-02-22T05:27:22.092Z,18.23
2018-02-22T05:32:21.110Z,18.23
2018-02-22T05:34:47.388Z,18.15
2018-02-22T05:37:13.553Z,18.18
2018-02-22T05:39:39.885Z,18.16
2018-02-22T05:42:06.059Z,18.16
2018-02-22T05:44:32.212Z,18.21
2018-02-22T05:46:58.401Z,18.26
2018-02-22T05:49:24.704Z,18.29
2018-02-22T05:51:50.901Z,18.31
2018-02-22T05:54:17.084Z,18.31
2018-02-22T05:56:43.598Z,18.30
2018-02-22T05:59:09.771Z,18.29
2018-02-22T06:01:35.976Z,18.30
2018-02-22T06:04:02.596Z,18.26
2018-02-22T06:06:28.828Z,18.21
2018-02-22T06:08:55.077Z,18.16
2018-02-22T06:11:21.274Z,18.14
2018-02-22T06:13:47.517Z,18.12
2018-02-22T06:16:13.754Z,18.16
2018-02-22T06:18:39.960Z,18.18
2018-02-22T06:21:06.157Z,18.25
2018-02-22T06:23:32.376Z,18.28
2018-02-22T06:25:58.590Z,18.25
2018-02-22T06:28:24.765Z,18.21
2018-02-22T06:30:50.989Z,18.19
2018-02-22T06:33:17.223Z,18.16
2018-02-22T06:35:43.408Z,18.17
2018-02-22T06:38:09.689Z,18.15
2018-02-22T06:40:35.924Z,18.14
2018-02-22T06:43:02.050Z,18.20
2018-02-22T06:45:28.229Z,18.24
2018-02-22T06:47:54.697Z,18.26
2018-02-22T06:50:20.907Z,18.32
2018-02-22T06:52:47.159Z,18.33
2018-02-22T06:55:13.416Z,18.36
2018-02-22T06:57:39.610Z,18.38
2018-02-22T07:00:12.186Z,18.34
2018-02-22T07:02:38.412Z,18.34
2018-02-22T07:05:04.572Z,18.35
2018-02-22T07:07:30.758Z,18.35
2018-02-22T07:09:56.951Z,18.36
2018-02-22T07:12:23.225Z,18.36
2018-02-22T07:14:49.437Z,18.42
2018-02-22T07:17:15.691Z,18.48
2018-02-22T07:19:41.889Z,18.48
2018-02-22T07:22:08.095Z,18.41
2018-02-22T07:24:34.325Z,18.36
2018-02-22T07:27:00.570Z,18.31
2018-02-22T07:29:26.761Z,18.27
2018-02-22T07:31:52.968Z,18.27
2018-02-22T07:34:19.236Z,18.26
2018-02-22T07:36:45.709Z,18.22
2018-02-22T07:39:11.956Z,18.22
2018-02-22T07:41:38.177Z,18.24
2018-02-22T07:44:04.366Z,18.26
2018-02-22T07:46:30.575Z,18.27
2018-02-22T07:48:56.750Z,18.28
2018-02-22T07:51:22.984Z,18.26
2018-02-22T07:53:49.236Z,18.27
2018-02-22T07:56:15.425Z,18.26
2018-02-22T07:58:41.596Z,18.30
2018-02-22T08:01:07.783Z,18.29
2018-02-22T08:03:33.950Z,18.30
2018-02-22T08:06:00.138Z,18.29
2018-02-22T08:08:26.368Z,18.27
2018-02-22T08:10:52.578Z,18.29
2018-02-22T08:13:18.804Z,18.25
2018-02-22T08:15:45.011Z,18.23
2018-02-22T08:18:11.219Z,18.25
2018-02-22T08:20:37.405Z,18.27
2018-02-22T08:23:03.636Z,18.28
2018-02-22T08:25:29.854Z,18.26
2018-02-22T08:27:56.089Z,18.26
2018-02-22T08:30:22.300Z,18.27
2018-02-22T08:32:48.491Z,18.27
2018-02-22T08:35:14.654Z,18.34
2018-02-22T08:37:40.886Z,18.39
2018-02-22T08:40:07.057Z,18.39
2018-02-22T08:42:33.312Z,18.37
2018-02-22T08:44:59.500Z,18.35
2018-02-22T08:47:25.749Z,18.35
2018-02-22T08:49:51.933Z,18.32
2018-02-22T08:52:18.114Z,18.33
2018-02-22T08:54:44.317Z,18.32
2018-02-22T08:57:10.574Z,18.33
2018-02-22T08:59:36.806Z,18.32
2018-02-22T09:02:03.005Z,18.32
2018-02-22T09:04:29.181Z,18.33
2018-02-22T09:06:55.397Z,18.31
2018-02-22T09:09:21.628Z,18.32
2018-02-22T09:11:47.814Z,18.34
2018-02-22T09:14:14.054Z,18.33
2018-02-22T09:16:40.656Z,18.35
2018-02-22T09:19:06.907Z,18.37
2018-02-22T09:21:33.186Z,18.37
2018-02-22T09:23:59.366Z,18.35
2018-02-22T09:26:25.622Z,18.35
2018-02-22T09:28:51.829Z,18.34
2018-02-22T09:31:18.016Z,18.34
2018-02-22T09:33:44.250Z,18.39
2018-02-22T09:36:10.677Z,18.37
2018-02-22T09:38:36.905Z,18.38
2018-02-22T09:41:03.089Z,18.41
2018-02-22T09:43:29.285Z,18.45
2018-02-22T09:45:55.477Z,18.45
2018-02-22T09:48:21.709Z,18.52
2018-02-22T09:50:47.889Z,18.51
2018-02-22T09:53:14.072Z,18.51
2018-02-22T09:55:40.310Z,18.52
2018-02-22T09:58:06.483Z,18.51
2018-02-22T10:00:33.692Z,18.47
2018-02-22T10:02:59.894Z,18.43
2018-02-22T10:05:26.144Z,18.46
2018-02-22T10:07:52.386Z,18.47
2018-02-22T10:10:18.587Z,18.50
2018-02-22T10:12:45.160Z,18.48
2018-02-22T10:15:11.396Z,18.51
2018-02-22T10:17:37.651Z,18.52
2018-02-22T10:20:04.117Z,18.55
2018-02-22T10:22:30.548Z,18.59
2018-02-22T10:24:56.759Z,18.54
2018-02-22T10:27:22.962Z,18.55
2018-02-22T10:29:49.207Z,18.56
2018-02-22T10:32:15.608Z,18.54
2018-02-22T10:34:41.773Z,18.54
2018-02-22T10:37:08.335Z,18.55
2018-02-22T10:39:34.575Z,18.56
2018-02-22T10:42:01.011Z,18.56
2018-02-22T10:44:27.178Z,18.57
2018-02-22T10:46:53.409Z,18.64
2018-02-22T10:49:19.622Z,18.63
2018-02-22T10:51:45.815Z,18.59
2018-02-22T10:54:12.339Z,18.60
2018-02-22T10:56:38.558Z,18.56
2018-02-22T11:01:42.965Z,18.55
2018-02-22T11:04:09.435Z,18.54
2018-02-22T11:06:35.876Z,18.53
2018-02-22T11:09:02.204Z,18.53
2018-02-22T11:11:28.417Z,18.63
2018-02-22T11:13:54.601Z,18.68
2018-02-22T11:16:21.095Z,18.70
2018-02-22T11:18:47.298Z,18.73
2018-02-22T11:21:13.471Z,18.70
2018-02-22T11:23:39.780Z,18.70
2018-02-22T11:26:05.972Z,18.65
2018-02-22T11:28:32.145Z,18.67
2018-02-22T11:30:58.453Z,18.66
2018-02-22T11:33:24.680Z,18.66
2018-02-22T11:35:50.846Z,18.68
2018-02-22T11:38:17.377Z,18.70
2018-02-22T11:40:43.583Z,18.68
2018-02-22T11:43:09.745Z,18.67
2018-02-22T11:45:35.968Z,18.70
2018-02-22T11:48:02.143Z,18.82
2018-02-22T11:50:28.388Z,18.89
2018-02-22T11:52:54.631Z,18.86
2018-02-22T11:55:20.792Z,18.84
2018-02-22T11:57:46.941Z,18.86
2018-02-22T12:00:13.168Z,18.84
2018-02-22T12:02:39.447Z,18.87
2018-02-22T12:05:05.746Z,18.90
2018-02-22T12:07:31.965Z,18.98
2018-02-22T12:09:58.134Z,18.97
2018-02-22T12:12:24.516Z,18.98
2018-02-22T12:14:50.975Z,19.02
2018-02-22T12:17:17.170Z,18.96
2018-02-22T12:19:43.408Z,18.84
2018-02-22T12:22:09.859Z,19.05
2018-02-22T12:24:36.079Z,18.98
2018-02-22T12:27:02.249Z,18.93
2018-02-22T12:29:28.460Z,18.92
2018-02-22T12:31:54.709Z,18.90
2018-02-22T12:34:20.887Z,18.91
2018-02-22T12:36:47.091Z,18.94
2018-02-22T12:39:13.303Z,18.96
2018-02-22T12:41:39.501Z,18.96
2018-02-22T12:44:05.753Z,18.96
2018-02-22T12:46:31.932Z,18.95
2018-02-22T12:48:58.206Z,18.98
2018-02-22T12:51:24.793Z,18.93
2018-02-22T12:53:51.307Z,18.90
2018-02-22T12:56:17.929Z,18.89
2018-02-22T12:58:44.260Z,18.86
2018-02-22T13:01:10.440Z,18.82
2018-02-22T13:03:36.661Z,18.78
2018-02-22T13:06:02.932Z,18.77
2018-02-22T13:08:29.133Z,18.78
2018-02-22T13:10:55.804Z,18.76
2018-02-22T13:13:22.038Z,18.74
2018-02-22T13:15:48.215Z,18.74
2018-02-22T13:18:14.446Z,18.72
2018-02-22T13:20:40.660Z,18.71
2018-02-22T13:23:06.847Z,18.68
2018-02-22T13:25:33.334Z,18.69
2018-02-22T13:27:59.544Z,18.73
2018-02-22T13:30:25.744Z,18.76
2018-02-22T13:33:03.944Z,18.82
2018-02-22T13:35:30.142Z,18.88
2018-02-22T13:38:17.565Z,18.88
2018-02-22T13:40:43.757Z,18.84
2018-02-22T13:43:09.918Z,18.86
2018-02-22T13:45:36.541Z,18.89
2018-02-22T13:48:03.079Z,18.91
2018-02-22T13:50:41.681Z,18.92
2018-02-22T13:53:07.899Z,18.97
2018-02-22T13:55:34.091Z,18.98
2018-02-22T13:58:00.291Z,18.99
2018-02-22T14:00:38.611Z,19.00
2018-02-22T14:03:04.848Z,18.97
2018-02-22T14:05:31.100Z,18.94
2018-02-22T14:07:57.313Z,18.85
2018-02-22T14:10:23.541Z,18.81
2018-02-22T14:12:49.786Z,18.75
2018-02-22T14:15:15.980Z,18.70
2018-02-22T14:17:42.494Z,18.67
2018-02-22T14:20:08.723Z,18.61
2018-02-22T14:22:34.936Z,18.59
2018-02-22T14:25:01.145Z,18.57
2018-02-22T14:27:27.346Z,18.55
2018-02-22T14:29:53.565Z,18.54
2018-02-22T14:32:19.749Z,18.51
2018-02-22T14:34:46.025Z,18.50
2018-02-22T14:37:12.230Z,18.50
2018-02-22T14:39:38.418Z,18.49
2018-02-22T14:42:04.977Z,18.49
2018-02-22T14:44:31.193Z,18.49
2018-02-22T14:46:57.400Z,18.49
2018-02-22T14:49:23.662Z,18.48
2018-02-22T14:51:50.089Z,18.46
2018-02-22T14:54:16.289Z,18.47
2018-02-22T14:56:42.523Z,18.54
2018-02-22T14:59:08.721Z,18.55
2018-02-22T15:01:34.926Z,18.52
2018-02-22T15:04:01.118Z,18.50
2018-02-22T15:06:27.365Z,18.51
2018-02-22T15:09:00.496Z,18.53
2018-02-22T15:11:26.819Z,18.54
2018-02-22T15:13:53.033Z,18.50
2018-02-22T15:16:19.549Z,18.46
2018-02-22T15:18:45.747Z,18.49
2018-02-22T15:21:11.943Z,18.48
2018-02-22T15:23:38.155Z,18.47
2018-02-22T15:26:04.343Z,18.48
2018-02-22T15:28:30.525Z,18.49
2018-02-22T15:30:57.020Z,18.50
2018-02-22T15:33:23.254Z,18.50
2018-02-22T15:35:49.458Z,18.50
2018-02-22T15:38:15.711Z,18.48
2018-02-22T15:40:41.878Z,18.44
2018-02-22T15:43:08.107Z,18.41
2018-02-22T15:45:34.371Z,18.40
2018-02-22T15:48:00.562Z,18.43
2018-02-22T15:50:26.822Z,18.43
2018-02-22T15:52:53.021Z,18.43
2018-02-22T15:55:19.278Z,18.42
2018-02-22T15:57:45.453Z,18.43
2018-02-22T16:00:11.670Z,18.43
2018-02-22T16:02:37.990Z,18.46
2018-02-22T16:05:04.478Z,18.45
2018-02-22T16:07:30.661Z,18.43
2018-02-22T16:09:56.900Z,18.42
2018-02-22T16:12:23.151Z,18.39
2018-02-22T16:14:49.351Z,18.39
2018-02-22T16:17:15.592Z,18.37
2018-02-22T16:19:41.810Z,18.36
2018-02-22T16:22:08.008Z,18.34
2018-02-22T16:24:34.184Z,18.32
2018-02-22T16:27:00.440Z,18.28
2018-02-22T16:29:26.622Z,18.23
2018-02-22T16:31:52.806Z,18.22
2018-02-22T16:34:19.080Z,18.20
2018-02-22T16:36:45.326Z,18.17
2018-02-22T16:39:11.529Z,18.17
2018-02-22T16:41:37.696Z,18.17
2018-02-22T16:44:03.929Z,18.16
2018-02-22T16:46:30.372Z,18.14
2018-02-22T16:48:56.688Z,18.14
2018-02-22T16:51:22.944Z,18.16
2018-02-22T16:53:49.240Z,18.19
2018-02-22T16:56:15.493Z,18.19
2018-02-22T16:58:42.046Z,18.19
2018-02-22T17:01:08.206Z,18.16
2018-02-22T17:03:34.410Z,18.17
2018-02-22T17:06:00.666Z,18.19
2018-02-22T17:08:26.939Z,18.17
2018-02-22T17:10:53.129Z,18.16
2018-02-22T17:13:19.360Z,18.18
2018-02-22T17:15:45.559Z,18.19
2018-02-22T17:18:11.762Z,18.16
2018-02-22T17:20:37.997Z,18.11
2018-02-22T17:23:04.224Z,18.10
2018-02-22T17:25:30.288Z,18.10
2018-02-22T17:28:02.552Z,18.11
2018-02-22T17:30:34.852Z,18.08
2018-02-22T17:33:01.034Z,18.09
2018-02-22T17:35:31.157Z,18.09
2018-02-22T17:37:57.415Z,18.05
2018-02-22T17:40:25.703Z,18.01
2018-02-22T17:42:51.961Z,18.00
2018-02-22T17:45:18.206Z,18.01
2018-02-22T17:47:44.462Z,17.98
2018-02-22T17:50:10.694Z,18.04
2018-02-22T17:52:36.897Z,18.04
2018-02-22T17:55:03.230Z,18.09
2018-02-22T17:57:29.428Z,18.10
2018-02-22T17:59:55.735Z,18.09
2018-02-22T18:02:22.025Z,18.09
2018-02-22T18:04:48.313Z,18.11
2018-02-22T18:07:14.875Z,18.09
2018-02-22T18:09:41.233Z,18.10
2018-02-22T18:12:07.430Z,18.16
2018-02-22T18:14:33.693Z,18.23
2018-02-22T18:16:59.945Z,18.28
2018-02-22T18:19:26.125Z,18.27
2018-02-22T18:21:52.381Z,18.31
2018-02-22T18:24:18.644Z,18.31
2018-02-22T18:26:44.828Z,18.31
2018-02-22T18:29:11.121Z,18.34
2018-02-22T18:31:37.552Z,18.37
2018-02-22T18:34:03.782Z,18.38
2018-02-22T18:36:31.062Z,18.31
2018-02-22T18:39:03.486Z,18.31
2018-02-22T18:41:35.688Z,18.28
2018-02-22T18:47:07.274Z,18.20
2018-02-22T18:49:33.662Z,18.19
2018-02-22T18:52:00.130Z,18.24
2018-02-22T18:54:26.371Z,18.24
2018-02-22T18:56:52.568Z,18.30
2018-02-22T18:59:18.774Z,18.29
2018-02-22T19:01:45.015Z,18.32
2018-02-22T19:04:11.578Z,18.37
2018-02-22T19:06:37.760Z,18.40
2018-02-22T19:09:04.244Z,18.42
2018-02-22T19:11:30.562Z,18.44
2018-02-22T19:13:56.754Z,18.40
2018-02-22T19:16:22.926Z,18.37
2018-02-22T19:18:49.146Z,18.33
2018-02-22T19:21:15.574Z,18.36
2018-02-22T19:23:41.830Z,18.32
2018-02-22T19:26:08.022Z,18.31
2018-02-22T19:28:34.566Z,18.27
2018-02-22T19:31:00.786Z,18.21
2018-02-22T19:33:26.959Z,18.29
2018-02-22T19:35:53.237Z,18.31
2018-02-22T19:38:19.518Z,18.30
2018-02-22T19:40:45.759Z,18.33
2018-02-22T19:43:12.014Z,18.33
2018-02-22T19:45:38.205Z,18.30
2018-02-22T19:48:04.381Z,18.28
2018-02-22T19:50:30.630Z,18.26
2018-02-22T19:52:56.815Z,18.25
2018-02-22T19:55:22.990Z,18.22
2018-02-22T19:57:49.213Z,18.20
2018-02-22T20:00:15.445Z,18.23
2018-02-22T20:02:41.677Z,18.25
2018-02-22T20:05:07.890Z,18.29
2018-02-22T20:07:34.063Z,18.24
2018-02-22T20:10:00.234Z,18.23
2018-02-22T20:12:26.774Z,18.22
2018-02-22T20:14:52.941Z,18.18
2018-02-22T20:17:19.139Z,18.16
2018-02-22T20:19:45.393Z,18.14
2018-02-22T20:22:11.589Z,18.14
2018-02-22T20:24:37.781Z,18.12
2018-02-22T20:27:04.000Z,18.13
2018-02-22T20:29:30.183Z,18.14
2018-02-22T20:31:56.379Z,18.14
2018-02-22T20:34:22.536Z,18.11
2018-02-22T20:36:48.780Z,18.16
2018-02-22T20:39:14.955Z,18.16
2018-02-22T20:41:41.179Z,18.15
2018-02-22T20:44:07.460Z,18.15
2018-02-22T20:46:33.672Z,18.15
2018-02-22T20:48:59.865Z,18.12
2018-02-22T20:54:20.154Z,18.12
2018-02-22T20:56:46.368Z,18.13
2018-02-22T20:59:12.653Z,18.12
2018-02-22T21:01:38.877Z,18.12
2018-02-22T21:04:10.955Z,18.11
2018-02-22T21:06:37.222Z,18.08
2018-02-22T21:09:03.577Z,18.08
2018-02-22T21:11:29.876Z,18.11
2018-02-22T21:13:56.109Z,18.20
2018-02-22T21:16:22.288Z,18.24
2018-02-22T21:18:48.485Z,18.28
2018-02-22T21:21:14.650Z,18.32
2018-02-22T21:23:40.871Z,18.33
2018-02-22T21:26:07.029Z,18.29
2018-02-22T21:28:33.283Z,18.21
2018-02-22T21:30:59.490Z,18.16
2018-02-22T21:33:25.991Z,18.10
2018-02-22T21:35:52.247Z,18.06
2018-02-22T21:38:18.658Z,18.07
2018-02-22T21:40:44.838Z,18.06
2018-02-22T21:43:11.051Z,18.07
2018-02-22T21:45:37.234Z,18.06
2018-02-22T21:48:03.498Z,18.10
2018-02-22T21:50:29.723Z,18.12
2018-02-22T21:52:56.231Z,18.14
2018-02-22T21:55:22.457Z,18.08
2018-02-22T21:57:48.615Z,18.08
2018-02-22T22:00:14.783Z,18.07
2018-02-22T22:02:41.349Z,18.05
2018-02-22T22:05:07.526Z,18.09
2018-02-22T22:07:33.698Z,18.15
2018-02-22T22:09:59.907Z,18.20
2018-02-22T22:12:26.107Z,18.18
2018-02-22T22:14:52.329Z,18.17
2018-02-22T22:17:18.602Z,18.17
2018-02-22T22:19:44.901Z,18.17
2018-02-22T22:22:11.349Z,18.17
2018-02-22T22:24:37.526Z,18.15
2018-02-22T22:27:03.753Z,18.15
2018-02-22T22:29:29.920Z,18.20
2018-02-22T22:31:56.200Z,18.21
2018-02-22T22:34:22.376Z,18.21
2018-02-22T22:36:48.631Z,18.20
2018-02-22T22:39:14.816Z,18.21
2018-02-22T22:41:40.988Z,18.20
2018-02-22T22:44:07.237Z,18.19
2018-02-22T22:46:33.458Z,18.21
2018-02-22T22:48:59.618Z,18.24
2018-02-22T22:51:25.884Z,18.22
2018-02-22T22:53:52.062Z,18.24
2018-02-22T22:56:18.224Z,18.24
2018-02-22T22:58:44.416Z,18.22
2018-02-22T23:01:10.631Z,18.20
2018-02-22T23:03:36.793Z,18.25
2018-02-22T23:06:02.984Z,18.24
2018-02-22T23:08:29.194Z,18.21
2018-02-22T23:10:55.386Z,18.23
2018-02-22T23:13:21.632Z,18.27
2018-02-22T23:15:48.070Z,18.34
2018-02-22T23:18:14.287Z,18.37
2018-02-22T23:20:40.477Z,18.40
2018-02-22T23:23:06.676Z,18.41
2018-02-22T23:25:32.832Z,18.41
2018-02-22T23:27:59.320Z,18.37
2018-02-22T23:30:25.492Z,18.32
2018-02-22T23:32:51.682Z,18.33
2018-02-22T23:35:17.964Z,18.33
2018-02-22T23:37:44.258Z,18.25
2018-02-22T23:40:14.584Z,18.21
2018-02-22T23:42:40.827Z,18.20
2018-02-22T23:45:07.021Z,18.20
2018-02-22T23:47:33.249Z,18.17
2018-02-22T23:49:59.518Z,18.16
2018-02-22T23:52:25.707Z,18.14
2018-02-22T23:54:51.977Z,18.12
2018-02-22T23:57:18.429Z,18.13
2018-02-22T23:59:44.616Z,18.13
